createdAt,value
2017-05-27T00:03:39.101Z,99.23
2017-05-27T00:23:39.573Z,99.07
2017-05-27T00:43:40.039Z,99.04
2017-05-27T01:03:40.318Z,99.10
2017-05-27T01:23:40.752Z,84.74
2017-05-27T01:43:41.204Z,45.36
2017-05-27T02:03:41.664Z,25.35
2017-05-27T02:23:42.157Z,92.81
2017-05-27T02:43:42.729Z,61.27
2017-05-27T03:02:58.772Z,99.98
2017-05-27T03:22:59.081Z,69.39
2017-05-27T03:42:59.611Z,14.46
2017-05-27T04:03:00.120Z,0.00
2017-05-27T04:23:00.656Z,0.00
2017-05-27T04:43:01.090Z,0.00
2017-05-27T05:03:01.605Z,0.00
2017-05-27T05:23:02.110Z,0.00
2017-05-27T05:43:02.657Z,0.00
2017-05-27T06:03:03.171Z,0.01
2017-05-27T06:23:03.691Z,0.00
2017-05-27T06:48:04.375Z,0.00
2017-05-27T07:08:04.845Z,0.00
2017-05-27T07:28:05.355Z,0.00
2017-05-27T07:48:05.855Z,0.05
2017-05-27T08:08:06.363Z,0.13
2017-05-27T08:28:06.849Z,0.17
2017-05-27T08:48:07.390Z,0.09
2017-05-27T09:08:07.810Z,2.40
2017-05-27T09:28:08.244Z,6.86
2017-05-27T09:48:08.798Z,10.90
2017-05-27T10:08:09.323Z,12.96
2017-05-27T10:28:09.862Z,13.79
2017-05-27T10:48:10.382Z,14.26
2017-05-27T11:08:10.888Z,14.46
2017-05-27T11:28:11.364Z,13.32
2017-05-27T11:48:11.717Z,10.31
2017-05-27T12:08:12.302Z,11.06
2017-05-27T12:28:12.787Z,32.14
2017-05-27T12:48:13.235Z,56.00
2017-05-27T13:08:58.139Z,32.06
2017-05-27T13:28:14.209Z,7.33
2017-05-27T13:48:14.725Z,27.51
2017-05-27T14:08:15.233Z,1.02
2017-05-27T14:33:15.894Z,25.04
2017-05-27T14:53:16.319Z,0.59
2017-05-27T15:13:16.900Z,25.03
2017-05-27T15:33:17.489Z,0.02
2017-05-27T15:53:17.924Z,0.00
2017-05-27T16:13:18.383Z,0.00
2017-05-27T16:33:18.845Z,0.00
2017-05-27T16:53:19.362Z,0.00
2017-05-27T17:13:19.879Z,0.00
2017-05-27T17:33:20.436Z,0.00
2017-05-27T17:53:20.948Z,0.00
2017-05-27T18:13:21.474Z,0.00
2017-05-27T18:33:21.857Z,0.00
2017-05-27T18:53:22.360Z,0.00
2017-05-27T19:13:22.798Z,0.00
2017-05-27T19:33:23.253Z,36.55
2017-05-27T19:53:23.630Z,79.57
2017-05-27T20:14:08.453Z,68.02
2017-05-27T20:34:09.005Z,99.18
2017-05-27T20:54:09.541Z,82.01
2017-05-27T21:14:09.986Z,10.77
2017-05-27T21:34:10.312Z,34.78
2017-05-27T21:54:10.747Z,87.32
2017-05-27T22:14:11.227Z,90.26
2017-05-27T22:44:11.683Z,94.37
2017-05-27T23:04:12.146Z,93.84
2017-05-27T23:24:12.521Z,94.89
2017-05-27T23:44:13.007Z,89.45
